Terminal Aerodrome Forecast
Issued by NWS Twin Cities, MN

Home | Current Version | Previous Version | Text Only | Print | Product List | Glossary On
Versions: 1 2 3 4 5 6 7 8 9 10 11 12 13 14 15 16 17 18
000
FTUS43 KMPX 282300
TAFEAU
TAF
KEAU 282333Z 2900/2924 11006KT P6SM VCSH SCT025 OVC080
     FM290200 11006KT P6SM BKN090
     FM291200 16006KT P6SM SCT015 BKN090
     FM292100 22007KT P6SM SCT015=

USA.gov is the U.S. government's official web portal to all federal, state and local government web resources and services.